sensor_id;sensor_type;location;lat;lon;timestamp;pressure;altitude;pressure_sealevel;temperature;humidity
65013;BME280;51715;39.432;-77.518;2024-02-21T00:00:23;100798.80;;;6.46;30.68
65013;BME280;51715;39.432;-77.518;2024-02-21T00:02:52;100800.98;;;6.43;30.85
65013;BME280;51715;39.432;-77.518;2024-02-21T00:05:21;100810.26;;;5.45;31.76
65013;BME280;51715;39.432;-77.518;2024-02-21T00:07:50;100814.83;;;4.18;34.29
65013;BME280;51715;39.432;-77.518;2024-02-21T00:10:18;100815.34;;;3.57;35.59
65013;BME280;51715;39.432;-77.518;2024-02-21T00:12:47;100816.02;;;2.96;37.22
65013;BME280;51715;39.432;-77.518;2024-02-21T00:15:16;100813.16;;;3.13;36.41
65013;BME280;51715;39.432;-77.518;2024-02-21T00:17:45;100812.81;;;3.56;36.11
65013;BME280;51715;39.432;-77.518;2024-02-21T00:20:15;100810.02;;;3.59;35.22
65013;BME280;51715;39.432;-77.518;2024-02-21T00:22:46;100810.95;;;4.96;33.11
65013;BME280;51715;39.432;-77.518;2024-02-21T00:25:15;100811.36;;;4.79;33.45
65013;BME280;51715;39.432;-77.518;2024-02-21T00:27:45;100813.26;;;4.84;33.59
65013;BME280;51715;39.432;-77.518;2024-02-21T00:30:17;100813.68;;;4.90;32.68
65013;BME280;51715;39.432;-77.518;2024-02-21T00:32:45;100808.48;;;4.39;33.47
65013;BME280;51715;39.432;-77.518;2024-02-21T00:35:16;100804.93;;;3.67;35.05
65013;BME280;51715;39.432;-77.518;2024-02-21T00:37:45;100808.06;;;3.78;34.93
65013;BME280;51715;39.432;-77.518;2024-02-21T00:40:13;100807.44;;;4.01;34.37
65013;BME280;51715;39.432;-77.518;2024-02-21T00:42:44;100808.16;;;4.57;34.21
65013;BME280;51715;39.432;-77.518;2024-02-21T00:45:12;100808.22;;;3.98;33.88
65013;BME280;51715;39.432;-77.518;2024-02-21T00:47:44;100813.28;;;4.15;33.83
65013;BME280;51715;39.432;-77.518;2024-02-21T00:50:13;100808.40;;;4.34;33.45
65013;BME280;51715;39.432;-77.518;2024-02-21T00:52:43;100810.70;;;3.74;35.07
65013;BME280;51715;39.432;-77.518;2024-02-21T00:55:13;100809.25;;;3.68;34.59
65013;BME280;51715;39.432;-77.518;2024-02-21T00:57:43;100813.63;;;3.33;35.06
65013;BME280;51715;39.432;-77.518;2024-02-21T01:00:17;100816.20;;;4.08;34.44
65013;BME280;51715;39.432;-77.518;2024-02-21T01:02:53;100817.57;;;4.43;33.25
65013;BME280;51715;39.432;-77.518;2024-02-21T01:05:24;100823.91;;;4.37;32.96
65013;BME280;51715;39.432;-77.518;2024-02-21T01:07:54;100822.92;;;3.33;34.27
65013;BME280;51715;39.432;-77.518;2024-02-21T01:10:22;100827.98;;;3.50;34.21
65013;BME280;51715;39.432;-77.518;2024-02-21T01:12:51;100834.17;;;3.03;35.33
65013;BME280;51715;39.432;-77.518;2024-02-21T01:15:21;100834.16;;;3.75;34.27
65013;BME280;51715;39.432;-77.518;2024-02-21T01:17:49;100837.41;;;3.85;34.24
65013;BME280;51715;39.432;-77.518;2024-02-21T01:20:20;100843.73;;;4.06;33.89
65013;BME280;51715;39.432;-77.518;2024-02-21T01:22:51;100844.08;;;3.85;33.74
65013;BME280;51715;39.432;-77.518;2024-02-21T01:25:25;100845.81;;;4.35;33.30
65013;BME280;51715;39.432;-77.518;2024-02-21T01:27:54;100845.47;;;3.89;33.17
65013;BME280;51715;39.432;-77.518;2024-02-21T01:30:23;100852.99;;;4.50;33.26
65013;BME280;51715;39.432;-77.518;2024-02-21T01:32:52;100852.67;;;5.04;32.11
65013;BME280;51715;39.432;-77.518;2024-02-21T01:35:28;100855.83;;;4.86;32.45
65013;BME280;51715;39.432;-77.518;2024-02-21T01:37:58;100861.30;;;4.54;32.54
65013;BME280;51715;39.432;-77.518;2024-02-21T01:40:28;100857.04;;;5.15;31.84
65013;BME280;51715;39.432;-77.518;2024-02-21T01:42:58;100857.96;;;4.95;31.85
65013;BME280;51715;39.432;-77.518;2024-02-21T01:45:29;100863.00;;;5.12;31.31
65013;BME280;51715;39.432;-77.518;2024-02-21T01:47:58;100858.58;;;5.11;31.84
65013;BME280;51715;39.432;-77.518;2024-02-21T01:50:26;100859.37;;;5.75;30.85
65013;BME280;51715;39.432;-77.518;2024-02-21T01:52:54;100858.55;;;5.91;30.66
65013;BME280;51715;39.432;-77.518;2024-02-21T01:55:23;100858.60;;;5.94;29.98
65013;BME280;51715;39.432;-77.518;2024-02-21T01:57:52;100860.02;;;6.22;29.88
65013;BME280;51715;39.432;-77.518;2024-02-21T02:00:23;100858.07;;;5.64;30.24
65013;BME280;51715;39.432;-77.518;2024-02-21T02:02:54;100860.66;;;6.40;30.22
65013;BME280;51715;39.432;-77.518;2024-02-21T02:05:22;100860.34;;;6.14;29.84
65013;BME280;51715;39.432;-77.518;2024-02-21T02:07:51;100861.88;;;5.92;29.94
65013;BME280;51715;39.432;-77.518;2024-02-21T02:10:19;100865.14;;;6.04;30.07
65013;BME280;51715;39.432;-77.518;2024-02-21T02:12:47;100865.04;;;6.10;29.87
65013;BME280;51715;39.432;-77.518;2024-02-21T02:15:16;100868.07;;;6.00;30.55
65013;BME280;51715;39.432;-77.518;2024-02-21T02:17:44;100867.61;;;6.07;30.30
65013;BME280;51715;39.432;-77.518;2024-02-21T02:20:15;100875.65;;;5.46;31.10
65013;BME280;51715;39.432;-77.518;2024-02-21T02:22:48;100873.84;;;5.69;30.34
65013;BME280;51715;39.432;-77.518;2024-02-21T02:25:18;100873.82;;;5.99;30.34
65013;BME280;51715;39.432;-77.518;2024-02-21T02:27:49;100875.12;;;5.70;30.68
65013;BME280;51715;39.432;-77.518;2024-02-21T02:30:17;100878.80;;;5.79;30.41
65013;BME280;51715;39.432;-77.518;2024-02-21T02:32:46;100877.77;;;6.17;30.13
65013;BME280;51715;39.432;-77.518;2024-02-21T02:35:16;100877.63;;;6.10;30.06
65013;BME280;51715;39.432;-77.518;2024-02-21T02:37:52;100877.14;;;6.22;30.04
65013;BME280;51715;39.432;-77.518;2024-02-21T02:40:20;100879.76;;;5.97;30.19
65013;BME280;51715;39.432;-77.518;2024-02-21T02:42:50;100883.76;;;5.74;30.21
65013;BME280;51715;39.432;-77.518;2024-02-21T02:45:19;100884.63;;;5.76;29.99
65013;BME280;51715;39.432;-77.518;2024-02-21T02:47:47;100885.00;;;5.97;30.50
65013;BME280;51715;39.432;-77.518;2024-02-21T02:50:17;100885.51;;;5.50;30.93
65013;BME280;51715;39.432;-77.518;2024-02-21T02:52:45;100889.28;;;5.00;31.77
65013;BME280;51715;39.432;-77.518;2024-02-21T02:55:12;100887.73;;;5.59;30.98
65013;BME280;51715;39.432;-77.518;2024-02-21T02:57:43;100886.21;;;5.41;31.12
65013;BME280;51715;39.432;-77.518;2024-02-21T03:00:13;100889.42;;;5.41;31.14
65013;BME280;51715;39.432;-77.518;2024-02-21T03:02:44;100890.13;;;5.19;31.91
65013;BME280;51715;39.432;-77.518;2024-02-21T03:05:15;100886.09;;;5.44;31.40
65013;BME280;51715;39.432;-77.518;2024-02-21T03:07:45;100885.55;;;5.18;32.09
65013;BME280;51715;39.432;-77.518;2024-02-21T03:10:14;100885.37;;;5.08;31.72
65013;BME280;51715;39.432;-77.518;2024-02-21T03:12:43;100888.80;;;5.53;31.57
65013;BME280;51715;39.432;-77.518;2024-02-21T03:15:15;100887.72;;;4.89;31.99
65013;BME280;51715;39.432;-77.518;2024-02-21T03:17:43;100884.30;;;4.34;32.58
65013;BME280;51715;39.432;-77.518;2024-02-21T03:20:12;100882.20;;;4.71;32.59
65013;BME280;51715;39.432;-77.518;2024-02-21T03:22:40;100882.47;;;4.60;33.03
65013;BME280;51715;39.432;-77.518;2024-02-21T03:25:10;100884.46;;;4.62;32.93
65013;BME280;51715;39.432;-77.518;2024-02-21T03:27:39;100882.59;;;5.16;31.94
65013;BME280;51715;39.432;-77.518;2024-02-21T03:30:08;100885.97;;;4.56;32.65
65013;BME280;51715;39.432;-77.518;2024-02-21T03:32:37;100891.42;;;4.86;32.53
65013;BME280;51715;39.432;-77.518;2024-02-21T03:35:06;100888.65;;;4.30;33.53
65013;BME280;51715;39.432;-77.518;2024-02-21T03:37:39;100890.64;;;2.97;36.07
65013;BME280;51715;39.432;-77.518;2024-02-21T03:40:09;100890.65;;;3.56;35.66
65013;BME280;51715;39.432;-77.518;2024-02-21T03:42:38;100897.04;;;2.77;36.84
65013;BME280;51715;39.432;-77.518;2024-02-21T03:45:09;100900.52;;;3.40;36.19
65013;BME280;51715;39.432;-77.518;2024-02-21T03:47:37;100901.29;;;2.73;37.58
65013;BME280;51715;39.432;-77.518;2024-02-21T03:50:07;100895.32;;;3.68;36.00
65013;BME280;51715;39.432;-77.518;2024-02-21T03:52:35;100895.74;;;4.46;34.70
65013;BME280;51715;39.432;-77.518;2024-02-21T03:55:04;100895.80;;;3.94;35.49
65013;BME280;51715;39.432;-77.518;2024-02-21T03:57:32;100901.15;;;3.44;37.01
65013;BME280;51715;39.432;-77.518;2024-02-21T04:00:02;100897.67;;;4.09;36.20
65013;BME280;51715;39.432;-77.518;2024-02-21T04:02:30;100907.55;;;3.16;37.21
65013;BME280;51715;39.432;-77.518;2024-02-21T04:04:59;100903.20;;;3.75;36.30
65013;BME280;51715;39.432;-77.518;2024-02-21T04:07:28;100905.91;;;3.78;36.56
65013;BME280;51715;39.432;-77.518;2024-02-21T04:09:55;100913.77;;;3.21;37.94
65013;BME280;51715;39.432;-77.518;2024-02-21T04:12:24;100919.61;;;2.94;38.12
65013;BME280;51715;39.432;-77.518;2024-02-21T04:14:51;100928.79;;;3.17;37.97
65013;BME280;51715;39.432;-77.518;2024-02-21T04:17:19;100931.96;;;3.42;37.69
65013;BME280;51715;39.432;-77.518;2024-02-21T04:19:47;100934.05;;;3.99;36.34
65013;BME280;51715;39.432;-77.518;2024-02-21T04:22:15;100939.77;;;4.98;35.26
65013;BME280;51715;39.432;-77.518;2024-02-21T04:24:43;100934.15;;;4.78;34.71
65013;BME280;51715;39.432;-77.518;2024-02-21T04:27:12;100938.74;;;4.74;34.04
65013;BME280;51715;39.432;-77.518;2024-02-21T04:29:42;100937.17;;;4.82;34.79
65013;BME280;51715;39.432;-77.518;2024-02-21T04:32:09;100944.19;;;4.48;34.87
65013;BME280;51715;39.432;-77.518;2024-02-21T04:34:37;100945.32;;;5.09;34.10
65013;BME280;51715;39.432;-77.518;2024-02-21T04:37:05;100948.43;;;5.08;33.96
65013;BME280;51715;39.432;-77.518;2024-02-21T04:39:36;100951.24;;;4.96;34.21
65013;BME280;51715;39.432;-77.518;2024-02-21T04:42:04;100950.30;;;4.73;34.09
65013;BME280;51715;39.432;-77.518;2024-02-21T04:44:33;100947.62;;;5.22;33.73
65013;BME280;51715;39.432;-77.518;2024-02-21T04:47:01;100948.05;;;5.19;33.55
65013;BME280;51715;39.432;-77.518;2024-02-21T04:49:30;100947.40;;;5.22;33.61
65013;BME280;51715;39.432;-77.518;2024-02-21T04:51:59;100946.15;;;4.86;34.52
65013;BME280;51715;39.432;-77.518;2024-02-21T04:54:28;100943.24;;;4.34;35.13
65013;BME280;51715;39.432;-77.518;2024-02-21T04:56:57;100947.68;;;4.75;34.81
65013;BME280;51715;39.432;-77.518;2024-02-21T04:59:25;100948.43;;;5.29;34.59
65013;BME280;51715;39.432;-77.518;2024-02-21T05:03:46;100956.25;;;4.92;33.61
65013;BME280;51715;39.432;-77.518;2024-02-21T05:06:15;100955.98;;;4.75;33.41
65013;BME280;51715;39.432;-77.518;2024-02-21T05:08:43;100953.89;;;4.75;33.74
65013;BME280;51715;39.432;-77.518;2024-02-21T05:11:14;100957.43;;;4.58;34.13
65013;BME280;51715;39.432;-77.518;2024-02-21T05:13:43;100955.77;;;5.08;34.05
65013;BME280;51715;39.432;-77.518;2024-02-21T05:16:12;100952.54;;;4.49;34.84
65013;BME280;51715;39.432;-77.518;2024-02-21T05:18:41;100953.53;;;4.36;35.05
65013;BME280;51715;39.432;-77.518;2024-02-21T05:21:10;100960.28;;;3.97;36.42
65013;BME280;51715;39.432;-77.518;2024-02-21T05:23:38;100959.91;;;4.49;35.80
65013;BME280;51715;39.432;-77.518;2024-02-21T05:26:09;100960.32;;;4.12;35.78
65013;BME280;51715;39.432;-77.518;2024-02-21T05:28:38;100969.06;;;3.89;36.47
65013;BME280;51715;39.432;-77.518;2024-02-21T05:31:08;100969.50;;;3.49;37.53
65013;BME280;51715;39.432;-77.518;2024-02-21T05:33:36;100973.09;;;3.62;37.29
65013;BME280;51715;39.432;-77.518;2024-02-21T05:36:05;100976.84;;;4.09;36.59
65013;BME280;51715;39.432;-77.518;2024-02-21T05:38:33;100978.01;;;4.19;35.97
65013;BME280;51715;39.432;-77.518;2024-02-21T05:41:01;100979.55;;;4.70;35.65
65013;BME280;51715;39.432;-77.518;2024-02-21T05:43:29;100975.31;;;4.42;36.02
65013;BME280;51715;39.432;-77.518;2024-02-21T05:45:59;100974.82;;;4.40;36.06
65013;BME280;51715;39.432;-77.518;2024-02-21T05:48:28;100979.83;;;3.87;36.83
65013;BME280;51715;39.432;-77.518;2024-02-21T05:50:55;100982.43;;;3.73;36.80
65013;BME280;51715;39.432;-77.518;2024-02-21T05:53:23;100984.88;;;3.81;36.59
65013;BME280;51715;39.432;-77.518;2024-02-21T05:55:51;100986.62;;;4.00;36.41
65013;BME280;51715;39.432;-77.518;2024-02-21T05:58:19;100989.33;;;4.32;36.57
65013;BME280;51715;39.432;-77.518;2024-02-21T06:00:47;100988.96;;;4.38;36.28
65013;BME280;51715;39.432;-77.518;2024-02-21T06:03:15;100993.13;;;4.09;36.78
65013;BME280;51715;39.432;-77.518;2024-02-21T06:05:43;100992.94;;;4.30;36.53
65013;BME280;51715;39.432;-77.518;2024-02-21T06:08:12;100994.63;;;3.69;36.74
65013;BME280;51715;39.432;-77.518;2024-02-21T06:10:40;100999.31;;;4.35;36.45
65013;BME280;51715;39.432;-77.518;2024-02-21T06:13:09;101001.40;;;4.34;36.71
65013;BME280;51715;39.432;-77.518;2024-02-21T06:15:37;101001.95;;;4.36;36.78
65013;BME280;51715;39.432;-77.518;2024-02-21T06:18:05;101001.24;;;4.56;36.21
65013;BME280;51715;39.432;-77.518;2024-02-21T06:20:33;101000.32;;;4.43;36.32
65013;BME280;51715;39.432;-77.518;2024-02-21T06:23:01;100994.35;;;4.43;36.19
65013;BME280;51715;39.432;-77.518;2024-02-21T06:25:30;100991.19;;;4.05;36.38
65013;BME280;51715;39.432;-77.518;2024-02-21T06:27:58;100985.72;;;3.86;36.95
65013;BME280;51715;39.432;-77.518;2024-02-21T06:30:27;100984.16;;;3.91;37.35
65013;BME280;51715;39.432;-77.518;2024-02-21T06:32:54;100979.43;;;4.10;36.83
65013;BME280;51715;39.432;-77.518;2024-02-21T06:35:22;100978.94;;;4.16;36.84
65013;BME280;51715;39.432;-77.518;2024-02-21T06:37:50;100975.79;;;4.21;36.56
65013;BME280;51715;39.432;-77.518;2024-02-21T06:40:20;100974.26;;;4.11;36.74
65013;BME280;51715;39.432;-77.518;2024-02-21T06:42:49;100966.83;;;3.93;36.91
65013;BME280;51715;39.432;-77.518;2024-02-21T06:45:17;100966.74;;;3.87;37.79
65013;BME280;51715;39.432;-77.518;2024-02-21T06:47:45;100970.02;;;3.57;37.55
65013;BME280;51715;39.432;-77.518;2024-02-21T06:50:13;100966.81;;;3.59;37.89
65013;BME280;51715;39.432;-77.518;2024-02-21T06:52:46;100964.08;;;3.46;37.68
65013;BME280;51715;39.432;-77.518;2024-02-21T06:55:14;100965.34;;;3.37;38.94
65013;BME280;51715;39.432;-77.518;2024-02-21T06:57:42;100963.76;;;3.16;39.51
65013;BME280;51715;39.432;-77.518;2024-02-21T07:00:11;100952.68;;;3.31;39.21
65013;BME280;51715;39.432;-77.518;2024-02-21T07:02:39;100946.90;;;2.45;41.03
65013;BME280;51715;39.432;-77.518;2024-02-21T07:05:08;100941.22;;;3.07;40.62
65013;BME280;51715;39.432;-77.518;2024-02-21T07:07:35;100935.98;;;3.41;39.61
65013;BME280;51715;39.432;-77.518;2024-02-21T07:10:04;100934.18;;;3.11;39.62
65013;BME280;51715;39.432;-77.518;2024-02-21T07:12:32;100933.90;;;3.14;39.50
65013;BME280;51715;39.432;-77.518;2024-02-21T07:15:00;100924.30;;;3.33;39.13
65013;BME280;51715;39.432;-77.518;2024-02-21T07:17:28;100920.30;;;3.31;39.57
65013;BME280;51715;39.432;-77.518;2024-02-21T07:19:57;100916.30;;;3.29;39.61
65013;BME280;51715;39.432;-77.518;2024-02-21T07:22:25;100910.31;;;3.14;38.84
65013;BME280;51715;39.432;-77.518;2024-02-21T07:24:53;100915.20;;;3.05;39.37
65013;BME280;51715;39.432;-77.518;2024-02-21T07:27:22;100920.42;;;2.61;40.62
65013;BME280;51715;39.432;-77.518;2024-02-21T07:29:49;100920.21;;;2.57;41.16
65013;BME280;51715;39.432;-77.518;2024-02-21T07:32:19;100923.31;;;2.43;41.32
65013;BME280;51715;39.432;-77.518;2024-02-21T07:34:49;100922.63;;;2.91;40.37
65013;BME280;51715;39.432;-77.518;2024-02-21T07:37:17;100926.19;;;2.67;41.09
65013;BME280;51715;39.432;-77.518;2024-02-21T07:39:46;100924.57;;;1.90;42.18
65013;BME280;51715;39.432;-77.518;2024-02-21T07:42:14;100919.20;;;2.53;41.43
65013;BME280;51715;39.432;-77.518;2024-02-21T07:44:42;100920.83;;;2.66;41.21
65013;BME280;51715;39.432;-77.518;2024-02-21T07:47:10;100921.48;;;2.04;41.88
65013;BME280;51715;39.432;-77.518;2024-02-21T07:49:43;100921.61;;;2.84;40.89
65013;BME280;51715;39.432;-77.518;2024-02-21T07:52:12;100926.67;;;2.30;41.23
65013;BME280;51715;39.432;-77.518;2024-02-21T07:54:40;100926.69;;;2.78;40.80
65013;BME280;51715;39.432;-77.518;2024-02-21T07:57:08;100922.58;;;2.34;41.82
65013;BME280;51715;39.432;-77.518;2024-02-21T07:59:38;100920.45;;;1.83;43.03
65013;BME280;51715;39.432;-77.518;2024-02-21T08:02:06;100911.14;;;2.24;42.00
65013;BME280;51715;39.432;-77.518;2024-02-21T08:04:35;100904.61;;;2.53;41.25
65013;BME280;51715;39.432;-77.518;2024-02-21T08:07:04;100901.34;;;2.81;40.64
65013;BME280;51715;39.432;-77.518;2024-02-21T08:09:34;100895.19;;;2.31;41.39
65013;BME280;51715;39.432;-77.518;2024-02-21T08:12:02;100895.17;;;2.85;40.76
65013;BME280;51715;39.432;-77.518;2024-02-21T08:14:30;100898.09;;;3.11;40.13
65013;BME280;51715;39.432;-77.518;2024-02-21T08:16:58;100901.68;;;3.18;39.74
65013;BME280;51715;39.432;-77.518;2024-02-21T08:19:27;100903.99;;;3.10;39.55
65013;BME280;51715;39.432;-77.518;2024-02-21T08:21:58;100905.72;;;3.06;39.75
65013;BME280;51715;39.432;-77.518;2024-02-21T08:24:27;100907.92;;;2.70;40.45
65013;BME280;51715;39.432;-77.518;2024-02-21T08:26:55;100904.01;;;2.27;41.78
65013;BME280;51715;39.432;-77.518;2024-02-21T08:29:25;100897.86;;;2.01;41.85
65013;BME280;51715;39.432;-77.518;2024-02-21T08:31:54;100894.50;;;2.40;41.01
65013;BME280;51715;39.432;-77.518;2024-02-21T08:34:21;100893.73;;;2.63;40.73
65013;BME280;51715;39.432;-77.518;2024-02-21T08:36:49;100896.83;;;2.78;40.58
65013;BME280;51715;39.432;-77.518;2024-02-21T08:39:18;100902.79;;;2.55;40.36
65013;BME280;51715;39.432;-77.518;2024-02-21T08:41:49;100911.83;;;3.00;40.00
65013;BME280;51715;39.432;-77.518;2024-02-21T08:44:21;100912.26;;;2.84;39.99
65013;BME280;51715;39.432;-77.518;2024-02-21T08:46:50;100913.78;;;2.89;39.52
65013;BME280;51715;39.432;-77.518;2024-02-21T08:49:19;100909.98;;;2.89;39.69
65013;BME280;51715;39.432;-77.518;2024-02-21T08:51:47;100908.80;;;2.38;40.33
65013;BME280;51715;39.432;-77.518;2024-02-21T08:54:16;100909.22;;;2.47;40.36
65013;BME280;51715;39.432;-77.518;2024-02-21T08:56:44;100906.42;;;2.36;40.73
65013;BME280;51715;39.432;-77.518;2024-02-21T08:59:15;100906.29;;;2.36;40.48
65013;BME280;51715;39.432;-77.518;2024-02-21T09:01:44;100908.71;;;2.58;40.66
65013;BME280;51715;39.432;-77.518;2024-02-21T09:04:12;100906.48;;;2.57;40.26
65013;BME280;51715;39.432;-77.518;2024-02-21T09:06:41;100911.81;;;2.72;40.60
65013;BME280;51715;39.432;-77.518;2024-02-21T09:09:09;100910.04;;;2.63;40.34
65013;BME280;51715;39.432;-77.518;2024-02-21T09:11:38;100911.60;;;2.69;40.57
65013;BME280;51715;39.432;-77.518;2024-02-21T09:14:07;100909.58;;;2.63;40.30
65013;BME280;51715;39.432;-77.518;2024-02-21T09:16:36;100909.56;;;2.17;41.33
65013;BME280;51715;39.432;-77.518;2024-02-21T09:19:04;100912.85;;;1.68;43.33
65013;BME280;51715;39.432;-77.518;2024-02-21T09:21:32;100905.47;;;2.13;42.34
65013;BME280;51715;39.432;-77.518;2024-02-21T09:24:00;100912.53;;;1.74;42.74
65013;BME280;51715;39.432;-77.518;2024-02-21T09:26:28;100905.31;;;2.55;42.19
65013;BME280;51715;39.432;-77.518;2024-02-21T09:28:58;100902.78;;;2.22;42.00
65013;BME280;51715;39.432;-77.518;2024-02-21T09:31:25;100905.87;;;2.43;41.75
65013;BME280;51715;39.432;-77.518;2024-02-21T09:33:53;100909.12;;;2.45;41.52
65013;BME280;51715;39.432;-77.518;2024-02-21T09:36:21;100909.58;;;2.25;42.31
65013;BME280;51715;39.432;-77.518;2024-02-21T09:38:49;100910.85;;;2.51;41.30
65013;BME280;51715;39.432;-77.518;2024-02-21T09:41:19;100906.12;;;2.22;41.91
65013;BME280;51715;39.432;-77.518;2024-02-21T09:43:52;100905.94;;;1.63;43.57
65013;BME280;51715;39.432;-77.518;2024-02-21T09:46:34;100905.00;;;2.02;42.75
65013;BME280;51715;39.432;-77.518;2024-02-21T09:49:13;100909.05;;;1.91;42.85
65013;BME280;51715;39.432;-77.518;2024-02-21T09:51:48;100910.58;;;1.66;42.70
65013;BME280;51715;39.432;-77.518;2024-02-21T09:54:17;100908.57;;;2.21;41.65
65013;BME280;51715;39.432;-77.518;2024-02-21T09:56:46;100911.37;;;2.73;41.62
65013;BME280;51715;39.432;-77.518;2024-02-21T09:59:15;100918.94;;;1.89;42.48
65013;BME280;51715;39.432;-77.518;2024-02-21T10:01:43;100916.63;;;2.07;42.28
65013;BME280;51715;39.432;-77.518;2024-02-21T10:04:11;100919.30;;;2.42;41.79
65013;BME280;51715;39.432;-77.518;2024-02-21T10:06:40;100928.22;;;1.93;42.53
65013;BME280;51715;39.432;-77.518;2024-02-21T10:09:09;100929.74;;;2.07;42.61
65013;BME280;51715;39.432;-77.518;2024-02-21T10:11:48;100928.79;;;2.68;42.09
65013;BME280;51715;39.432;-77.518;2024-02-21T10:14:17;100931.31;;;2.24;42.34
65013;BME280;51715;39.432;-77.518;2024-02-21T10:16:48;100932.17;;;2.35;41.20
65013;BME280;51715;39.432;-77.518;2024-02-21T10:19:18;100931.20;;;2.77;40.87
65013;BME280;51715;39.432;-77.518;2024-02-21T10:22:00;100940.36;;;2.34;42.79
65013;BME280;51715;39.432;-77.518;2024-02-21T10:24:31;100940.05;;;2.53;42.20
65013;BME280;51715;39.432;-77.518;2024-02-21T10:27:02;100951.27;;;2.13;42.56
65013;BME280;51715;39.432;-77.518;2024-02-21T10:29:31;100944.61;;;2.32;42.14
65013;BME280;51715;39.432;-77.518;2024-02-21T10:32:09;100942.71;;;2.68;42.22
65013;BME280;51715;39.432;-77.518;2024-02-21T10:34:38;100951.90;;;2.19;42.80
65013;BME280;51715;39.432;-77.518;2024-02-21T10:37:09;100949.95;;;2.54;42.07
65013;BME280;51715;39.432;-77.518;2024-02-21T10:39:39;100950.87;;;2.39;41.80
65013;BME280;51715;39.432;-77.518;2024-02-21T10:42:11;100953.46;;;2.91;41.80
65013;BME280;51715;39.432;-77.518;2024-02-21T10:44:40;100958.43;;;2.38;42.15
65013;BME280;51715;39.432;-77.518;2024-02-21T10:47:10;100953.38;;;2.86;41.81
65013;BME280;51715;39.432;-77.518;2024-02-21T10:49:39;100952.64;;;3.11;41.20
65013;BME280;51715;39.432;-77.518;2024-02-21T10:52:15;100957.73;;;2.67;42.06
65013;BME280;51715;39.432;-77.518;2024-02-21T10:54:55;100960.32;;;3.06;40.78
65013;BME280;51715;39.432;-77.518;2024-02-21T10:57:24;100962.91;;;3.06;40.57
65013;BME280;51715;39.432;-77.518;2024-02-21T10:59:54;100960.12;;;3.34;40.38
65013;BME280;51715;39.432;-77.518;2024-02-21T11:02:22;100956.07;;;2.68;41.40
65013;BME280;51715;39.432;-77.518;2024-02-21T11:04:52;100955.12;;;2.23;42.74
65013;BME280;51715;39.432;-77.518;2024-02-21T11:07:22;100964.29;;;0.63;45.51
65013;BME280;51715;39.432;-77.518;2024-02-21T11:09:53;100964.65;;;1.38;44.38
65013;BME280;51715;39.432;-77.518;2024-02-21T11:12:23;100964.02;;;1.56;44.12
65013;BME280;51715;39.432;-77.518;2024-02-21T11:14:54;100963.07;;;1.46;44.51
65013;BME280;51715;39.432;-77.518;2024-02-21T11:17:30;100967.20;;;1.62;43.77
65013;BME280;51715;39.432;-77.518;2024-02-21T11:20:11;100970.80;;;1.29;44.61
65013;BME280;51715;39.432;-77.518;2024-02-21T11:22:43;100971.24;;;1.33;44.57
65013;BME280;51715;39.432;-77.518;2024-02-21T11:25:11;100969.53;;;0.26;46.55
65013;BME280;51715;39.432;-77.518;2024-02-21T11:27:39;100972.12;;;0.93;46.06
65013;BME280;51715;39.432;-77.518;2024-02-21T11:30:12;100973.25;;;0.56;47.20
65013;BME280;51715;39.432;-77.518;2024-02-21T11:32:43;100964.19;;;0.53;46.72
65013;BME280;51715;39.432;-77.518;2024-02-21T11:35:19;100958.60;;;0.80;46.71
65013;BME280;51715;39.432;-77.518;2024-02-21T11:37:47;100963.48;;;0.62;46.22
65013;BME280;51715;39.432;-77.518;2024-02-21T11:40:20;100965.71;;;1.14;45.76
65013;BME280;51715;39.432;-77.518;2024-02-21T11:42:49;100962.17;;;0.31;46.76
65013;BME280;51715;39.432;-77.518;2024-02-21T11:45:17;100965.55;;;1.21;46.06
65013;BME280;51715;39.432;-77.518;2024-02-21T11:47:45;100961.33;;;1.58;44.31
65013;BME280;51715;39.432;-77.518;2024-02-21T11:50:13;100957.06;;;1.27;44.94
65013;BME280;51715;39.432;-77.518;2024-02-21T11:52:43;100952.57;;;1.88;43.92
65013;BME280;51715;39.432;-77.518;2024-02-21T11:55:11;100950.47;;;1.79;43.38
65013;BME280;51715;39.432;-77.518;2024-02-21T11:57:39;100951.72;;;2.08;42.76
65013;BME280;51715;39.432;-77.518;2024-02-21T12:00:15;100952.31;;;2.42;42.22
65013;BME280;51715;39.432;-77.518;2024-02-21T12:02:46;100946.94;;;2.64;41.74
65013;BME280;51715;39.432;-77.518;2024-02-21T12:05:14;100952.71;;;2.30;41.59
65013;BME280;51715;39.432;-77.518;2024-02-21T12:07:44;100950.91;;;2.15;42.20
65013;BME280;51715;39.432;-77.518;2024-02-21T12:10:13;100954.09;;;1.77;43.54
65013;BME280;51715;39.432;-77.518;2024-02-21T12:12:41;100951.55;;;2.11;42.94
65013;BME280;51715;39.432;-77.518;2024-02-21T12:15:09;100944.34;;;2.00;41.98
65013;BME280;51715;39.432;-77.518;2024-02-21T12:17:40;100939.23;;;2.43;41.92
65013;BME280;51715;39.432;-77.518;2024-02-21T12:20:09;100941.19;;;2.61;41.58
65013;BME280;51715;39.432;-77.518;2024-02-21T12:22:38;100950.82;;;2.96;41.21
65013;BME280;51715;39.432;-77.518;2024-02-21T12:25:18;100954.88;;;2.03;42.63
65013;BME280;51715;39.432;-77.518;2024-02-21T12:27:50;100958.26;;;2.13;41.90
65013;BME280;51715;39.432;-77.518;2024-02-21T12:30:19;100959.27;;;2.05;42.15
65013;BME280;51715;39.432;-77.518;2024-02-21T12:32:48;100963.72;;;2.22;41.94
65013;BME280;51715;39.432;-77.518;2024-02-21T12:35:17;100963.94;;;2.72;41.52
65013;BME280;51715;39.432;-77.518;2024-02-21T12:37:46;100963.20;;;2.40;41.99
65013;BME280;51715;39.432;-77.518;2024-02-21T12:40:13;100969.78;;;2.02;43.85
65013;BME280;51715;39.432;-77.518;2024-02-21T12:42:41;100971.03;;;2.62;42.75
65013;BME280;51715;39.432;-77.518;2024-02-21T12:45:11;100976.37;;;2.74;42.28
65013;BME280;51715;39.432;-77.518;2024-02-21T12:47:39;100984.05;;;3.27;41.27
65013;BME280;51715;39.432;-77.518;2024-02-21T12:50:08;100986.30;;;3.63;40.86
65013;BME280;51715;39.432;-77.518;2024-02-21T12:52:36;100991.12;;;3.35;40.77